sensor_id;sensor_type;location;lat;lon;timestamp;pressure;altitude;pressure_sealevel;temperature
16956;BMP180;8594;52.052;8.354;2023-12-04T00:00:02;100580.00;;;1.70
16956;BMP180;8594;52.052;8.354;2023-12-04T00:02:30;100578.00;;;1.70
16956;BMP180;8594;52.052;8.354;2023-12-04T00:04:57;100574.00;;;1.50
16956;BMP180;8594;52.052;8.354;2023-12-04T00:07:23;100566.00;;;1.30
16956;BMP180;8594;52.052;8.354;2023-12-04T00:09:50;100567.00;;;1.60
16956;BMP180;8594;52.052;8.354;2023-12-04T00:12:18;100556.00;;;1.40
16956;BMP180;8594;52.052;8.354;2023-12-04T00:14:45;100545.00;;;1.50
16956;BMP180;8594;52.052;8.354;2023-12-04T00:17:12;100565.00;;;1.90
16956;BMP180;8594;52.052;8.354;2023-12-04T00:19:39;100547.00;;;1.70
16956;BMP180;8594;52.052;8.354;2023-12-04T00:22:05;100550.00;;;1.70
16956;BMP180;8594;52.052;8.354;2023-12-04T00:24:32;100539.00;;;1.70
16956;BMP180;8594;52.052;8.354;2023-12-04T00:26:59;100542.00;;;1.60
16956;BMP180;8594;52.052;8.354;2023-12-04T00:29:27;100535.00;;;1.30
16956;BMP180;8594;52.052;8.354;2023-12-04T00:31:54;100532.00;;;1.80
16956;BMP180;8594;52.052;8.354;2023-12-04T00:34:22;100538.00;;;1.60
16956;BMP180;8594;52.052;8.354;2023-12-04T00:36:49;100534.00;;;2.00
16956;BMP180;8594;52.052;8.354;2023-12-04T00:39:16;100534.00;;;1.90
16956;BMP180;8594;52.052;8.354;2023-12-04T00:41:42;100537.00;;;1.80
16956;BMP180;8594;52.052;8.354;2023-12-04T00:44:09;100532.00;;;1.30
16956;BMP180;8594;52.052;8.354;2023-12-04T00:46:37;100536.00;;;1.80
16956;BMP180;8594;52.052;8.354;2023-12-04T00:49:04;100529.00;;;2.00
16956;BMP180;8594;52.052;8.354;2023-12-04T00:51:37;100523.00;;;1.90
16956;BMP180;8594;52.052;8.354;2023-12-04T00:54:04;100522.00;;;1.70
16956;BMP180;8594;52.052;8.354;2023-12-04T00:56:31;100517.00;;;1.80
16956;BMP180;8594;52.052;8.354;2023-12-04T00:58:58;100511.00;;;1.50
16956;BMP180;8594;52.052;8.354;2023-12-04T01:01:24;100512.00;;;1.90
16956;BMP180;8594;52.052;8.354;2023-12-04T01:03:52;100502.00;;;2.00
16956;BMP180;8594;52.052;8.354;2023-12-04T01:06:23;100499.00;;;1.60
16956;BMP180;8594;52.052;8.354;2023-12-04T01:08:50;100493.00;;;1.80
16956;BMP180;8594;52.052;8.354;2023-12-04T01:11:18;100493.00;;;1.90
16956;BMP180;8594;52.052;8.354;2023-12-04T01:13:45;100483.00;;;1.70
16956;BMP180;8594;52.052;8.354;2023-12-04T01:16:12;100483.00;;;1.90
16956;BMP180;8594;52.052;8.354;2023-12-04T01:18:40;100488.00;;;2.00
16956;BMP180;8594;52.052;8.354;2023-12-04T01:21:09;100482.00;;;2.00
16956;BMP180;8594;52.052;8.354;2023-12-04T01:23:36;100483.00;;;1.90
16956;BMP180;8594;52.052;8.354;2023-12-04T01:26:04;100483.00;;;1.90
16956;BMP180;8594;52.052;8.354;2023-12-04T01:28:30;100470.00;;;1.60
16956;BMP180;8594;52.052;8.354;2023-12-04T01:30:57;100476.00;;;1.90
16956;BMP180;8594;52.052;8.354;2023-12-04T01:33:24;100465.00;;;2.00
16956;BMP180;8594;52.052;8.354;2023-12-04T01:35:51;100470.00;;;2.00
16956;BMP180;8594;52.052;8.354;2023-12-04T01:38:19;100471.00;;;1.90
16956;BMP180;8594;52.052;8.354;2023-12-04T01:40:46;100462.00;;;2.00
16956;BMP180;8594;52.052;8.354;2023-12-04T01:43:12;100474.00;;;2.10
16956;BMP180;8594;52.052;8.354;2023-12-04T01:45:40;100470.00;;;2.10
16956;BMP180;8594;52.052;8.354;2023-12-04T01:48:08;100461.00;;;2.20
16956;BMP180;8594;52.052;8.354;2023-12-04T01:50:36;100452.00;;;1.80
16956;BMP180;8594;52.052;8.354;2023-12-04T01:53:03;100444.00;;;2.00
16956;BMP180;8594;52.052;8.354;2023-12-04T01:55:33;100447.00;;;1.90
16956;BMP180;8594;52.052;8.354;2023-12-04T01:58:02;100441.00;;;1.90
16956;BMP180;8594;52.052;8.354;2023-12-04T02:00:30;100443.00;;;1.60
16956;BMP180;8594;52.052;8.354;2023-12-04T02:02:58;100438.00;;;1.70
16956;BMP180;8594;52.052;8.354;2023-12-04T02:05:26;100431.00;;;1.60
16956;BMP180;8594;52.052;8.354;2023-12-04T02:07:53;100443.00;;;1.90
16956;BMP180;8594;52.052;8.354;2023-12-04T02:10:21;100437.00;;;2.10
16956;BMP180;8594;52.052;8.354;2023-12-04T02:12:49;100428.00;;;1.80
16956;BMP180;8594;52.052;8.354;2023-12-04T02:15:16;100416.00;;;2.00
16956;BMP180;8594;52.052;8.354;2023-12-04T02:17:43;100422.00;;;1.80
16956;BMP180;8594;52.052;8.354;2023-12-04T02:20:13;100425.00;;;1.90
16956;BMP180;8594;52.052;8.354;2023-12-04T02:22:40;100429.00;;;2.00
16956;BMP180;8594;52.052;8.354;2023-12-04T02:25:09;100414.00;;;2.00
16956;BMP180;8594;52.052;8.354;2023-12-04T02:27:44;100409.00;;;2.00
16956;BMP180;8594;52.052;8.354;2023-12-04T02:30:16;100404.00;;;2.10
16956;BMP180;8594;52.052;8.354;2023-12-04T02:32:46;100405.00;;;2.10
16956;BMP180;8594;52.052;8.354;2023-12-04T02:35:18;100400.00;;;1.90
16956;BMP180;8594;52.052;8.354;2023-12-04T02:37:47;100393.00;;;1.90
16956;BMP180;8594;52.052;8.354;2023-12-04T02:40:16;100395.00;;;2.10
16956;BMP180;8594;52.052;8.354;2023-12-04T02:42:44;100377.00;;;1.90
16956;BMP180;8594;52.052;8.354;2023-12-04T02:45:11;100363.00;;;1.90
16956;BMP180;8594;52.052;8.354;2023-12-04T02:47:38;100363.00;;;1.90
16956;BMP180;8594;52.052;8.354;2023-12-04T02:50:06;100374.00;;;1.80
16956;BMP180;8594;52.052;8.354;2023-12-04T02:52:33;100372.00;;;1.70
16956;BMP180;8594;52.052;8.354;2023-12-04T02:54:59;100357.00;;;1.90
16956;BMP180;8594;52.052;8.354;2023-12-04T02:57:27;100362.00;;;2.20
16956;BMP180;8594;52.052;8.354;2023-12-04T02:59:55;100365.00;;;2.30
16956;BMP180;8594;52.052;8.354;2023-12-04T03:02:21;100364.00;;;2.50
16956;BMP180;8594;52.052;8.354;2023-12-04T03:04:48;100355.00;;;2.50
16956;BMP180;8594;52.052;8.354;2023-12-04T03:07:15;100352.00;;;2.50
16956;BMP180;8594;52.052;8.354;2023-12-04T03:09:45;100353.00;;;2.60
16956;BMP180;8594;52.052;8.354;2023-12-04T03:12:12;100354.00;;;2.50
16956;BMP180;8594;52.052;8.354;2023-12-04T03:14:40;100346.00;;;2.40
16956;BMP180;8594;52.052;8.354;2023-12-04T03:17:07;100342.00;;;2.50
16956;BMP180;8594;52.052;8.354;2023-12-04T03:19:34;100343.00;;;2.60
16956;BMP180;8594;52.052;8.354;2023-12-04T03:22:01;100335.00;;;2.40
16956;BMP180;8594;52.052;8.354;2023-12-04T03:24:28;100339.00;;;2.70
16956;BMP180;8594;52.052;8.354;2023-12-04T03:26:54;100330.00;;;2.30
16956;BMP180;8594;52.052;8.354;2023-12-04T03:29:21;100322.00;;;2.50
16956;BMP180;8594;52.052;8.354;2023-12-04T03:31:49;100331.00;;;2.30
16956;BMP180;8594;52.052;8.354;2023-12-04T03:34:16;100319.00;;;2.40
16956;BMP180;8594;52.052;8.354;2023-12-04T03:36:42;100309.00;;;2.70
16956;BMP180;8594;52.052;8.354;2023-12-04T03:39:09;100313.00;;;2.50
16956;BMP180;8594;52.052;8.354;2023-12-04T03:41:36;100311.00;;;2.40
16956;BMP180;8594;52.052;8.354;2023-12-04T03:44:03;100313.00;;;2.50
16956;BMP180;8594;52.052;8.354;2023-12-04T03:46:29;100304.00;;;2.30
16956;BMP180;8594;52.052;8.354;2023-12-04T03:48:58;100301.00;;;2.70
16956;BMP180;8594;52.052;8.354;2023-12-04T03:51:24;100299.00;;;2.90
16956;BMP180;8594;52.052;8.354;2023-12-04T03:53:51;100295.00;;;2.60
16956;BMP180;8594;52.052;8.354;2023-12-04T03:56:18;100290.00;;;3.20
16956;BMP180;8594;52.052;8.354;2023-12-04T03:58:44;100290.00;;;2.90
16956;BMP180;8594;52.052;8.354;2023-12-04T04:01:11;100284.00;;;2.70
16956;BMP180;8594;52.052;8.354;2023-12-04T04:03:38;100284.00;;;3.20
16956;BMP180;8594;52.052;8.354;2023-12-04T04:06:07;100282.00;;;2.80
16956;BMP180;8594;52.052;8.354;2023-12-04T04:08:34;100282.00;;;2.90
16956;BMP180;8594;52.052;8.354;2023-12-04T04:11:01;100280.00;;;2.90
16956;BMP180;8594;52.052;8.354;2023-12-04T04:13:28;100275.00;;;2.80
16956;BMP180;8594;52.052;8.354;2023-12-04T04:15:54;100272.00;;;3.00
16956;BMP180;8594;52.052;8.354;2023-12-04T04:18:21;100271.00;;;3.30
16956;BMP180;8594;52.052;8.354;2023-12-04T04:20:48;100275.00;;;3.10
16956;BMP180;8594;52.052;8.354;2023-12-04T04:23:16;100270.00;;;3.00
16956;BMP180;8594;52.052;8.354;2023-12-04T04:25:42;100273.00;;;3.00
16956;BMP180;8594;52.052;8.354;2023-12-04T04:28:09;100268.00;;;3.00
16956;BMP180;8594;52.052;8.354;2023-12-04T04:30:36;100259.00;;;3.30
16956;BMP180;8594;52.052;8.354;2023-12-04T04:33:03;100255.00;;;3.10
16956;BMP180;8594;52.052;8.354;2023-12-04T04:35:30;100258.00;;;2.80
16956;BMP180;8594;52.052;8.354;2023-12-04T04:37:57;100255.00;;;3.10
16956;BMP180;8594;52.052;8.354;2023-12-04T04:40:26;100258.00;;;3.40
16956;BMP180;8594;52.052;8.354;2023-12-04T04:42:52;100255.00;;;3.40
16956;BMP180;8594;52.052;8.354;2023-12-04T04:45:19;100250.00;;;3.40
16956;BMP180;8594;52.052;8.354;2023-12-04T04:47:46;100253.00;;;3.10
16956;BMP180;8594;52.052;8.354;2023-12-04T04:50:12;100259.00;;;3.30
16956;BMP180;8594;52.052;8.354;2023-12-04T04:52:39;100249.00;;;3.50
16956;BMP180;8594;52.052;8.354;2023-12-04T04:55:07;100246.00;;;3.20
16956;BMP180;8594;52.052;8.354;2023-12-04T04:57:35;100253.00;;;3.30
16956;BMP180;8594;52.052;8.354;2023-12-04T05:00:02;100253.00;;;3.30
16956;BMP180;8594;52.052;8.354;2023-12-04T05:02:29;100248.00;;;3.50
16956;BMP180;8594;52.052;8.354;2023-12-04T05:04:56;100246.00;;;3.60
16956;BMP180;8594;52.052;8.354;2023-12-04T05:07:23;100243.00;;;3.30
16956;BMP180;8594;52.052;8.354;2023-12-04T05:09:50;100241.00;;;3.00
16956;BMP180;8594;52.052;8.354;2023-12-04T05:12:16;100245.00;;;3.30
16956;BMP180;8594;52.052;8.354;2023-12-04T05:14:44;100241.00;;;3.40
16956;BMP180;8594;52.052;8.354;2023-12-04T05:17:11;100236.00;;;3.20
16956;BMP180;8594;52.052;8.354;2023-12-04T05:19:38;100229.00;;;3.40
16956;BMP180;8594;52.052;8.354;2023-12-04T05:22:04;100230.00;;;3.20
16956;BMP180;8594;52.052;8.354;2023-12-04T05:24:31;100225.00;;;3.30
16956;BMP180;8594;52.052;8.354;2023-12-04T05:26:58;100220.00;;;3.30
16956;BMP180;8594;52.052;8.354;2023-12-04T05:29:25;100224.00;;;3.30
16956;BMP180;8594;52.052;8.354;2023-12-04T05:31:53;100210.00;;;3.10
16956;BMP180;8594;52.052;8.354;2023-12-04T05:34:19;100211.00;;;3.20
16956;BMP180;8594;52.052;8.354;2023-12-04T05:36:46;100203.00;;;2.90
16956;BMP180;8594;52.052;8.354;2023-12-04T05:39:13;100204.00;;;3.00
16956;BMP180;8594;52.052;8.354;2023-12-04T05:41:39;100213.00;;;2.80
16956;BMP180;8594;52.052;8.354;2023-12-04T05:44:06;100205.00;;;3.10
16956;BMP180;8594;52.052;8.354;2023-12-04T05:46:33;100201.00;;;3.30
16956;BMP180;8594;52.052;8.354;2023-12-04T05:49:01;100211.00;;;3.10
16956;BMP180;8594;52.052;8.354;2023-12-04T05:51:27;100207.00;;;3.10
16956;BMP180;8594;52.052;8.354;2023-12-04T05:53:54;100206.00;;;2.90
16956;BMP180;8594;52.052;8.354;2023-12-04T05:56:21;100202.00;;;3.40
16956;BMP180;8594;52.052;8.354;2023-12-04T05:58:48;100202.00;;;3.20
16956;BMP180;8594;52.052;8.354;2023-12-04T06:01:15;100205.00;;;3.50
16956;BMP180;8594;52.052;8.354;2023-12-04T06:03:42;100203.00;;;3.40
16956;BMP180;8594;52.052;8.354;2023-12-04T06:06:10;100206.00;;;3.40
16956;BMP180;8594;52.052;8.354;2023-12-04T06:08:36;100202.00;;;3.40
16956;BMP180;8594;52.052;8.354;2023-12-04T06:11:04;100203.00;;;3.20
16956;BMP180;8594;52.052;8.354;2023-12-04T06:13:30;100202.00;;;3.30
16956;BMP180;8594;52.052;8.354;2023-12-04T06:15:57;100196.00;;;3.40
16956;BMP180;8594;52.052;8.354;2023-12-04T06:18:24;100198.00;;;3.50
16956;BMP180;8594;52.052;8.354;2023-12-04T06:20:51;100193.00;;;3.50
16956;BMP180;8594;52.052;8.354;2023-12-04T06:23:19;100186.00;;;3.40
16956;BMP180;8594;52.052;8.354;2023-12-04T06:25:47;100201.00;;;3.00
16956;BMP180;8594;52.052;8.354;2023-12-04T06:28:14;100196.00;;;3.10
16956;BMP180;8594;52.052;8.354;2023-12-04T06:30:42;100195.00;;;3.10
16956;BMP180;8594;52.052;8.354;2023-12-04T06:33:09;100198.00;;;3.50
16956;BMP180;8594;52.052;8.354;2023-12-04T06:35:37;100207.00;;;3.30
16956;BMP180;8594;52.052;8.354;2023-12-04T06:38:07;100200.00;;;3.10
16956;BMP180;8594;52.052;8.354;2023-12-04T06:40:36;100209.00;;;3.20
16956;BMP180;8594;52.052;8.354;2023-12-04T06:43:03;100217.00;;;3.00
16956;BMP180;8594;52.052;8.354;2023-12-04T06:45:31;100210.00;;;3.50
16956;BMP180;8594;52.052;8.354;2023-12-04T06:48:00;100212.00;;;3.20
16956;BMP180;8594;52.052;8.354;2023-12-04T06:50:27;100211.00;;;3.30
16956;BMP180;8594;52.052;8.354;2023-12-04T06:52:53;100203.00;;;3.50
16956;BMP180;8594;52.052;8.354;2023-12-04T06:55:20;100202.00;;;3.30
16956;BMP180;8594;52.052;8.354;2023-12-04T06:57:48;100203.00;;;3.60
16956;BMP180;8594;52.052;8.354;2023-12-04T07:00:16;100202.00;;;3.20
16956;BMP180;8594;52.052;8.354;2023-12-04T07:02:43;100201.00;;;3.40
16956;BMP180;8594;52.052;8.354;2023-12-04T07:05:10;100196.00;;;3.10
16956;BMP180;8594;52.052;8.354;2023-12-04T07:07:36;100181.00;;;3.40
16956;BMP180;8594;52.052;8.354;2023-12-04T07:10:04;100183.00;;;3.00
16956;BMP180;8594;52.052;8.354;2023-12-04T07:12:31;100171.00;;;3.10
16956;BMP180;8594;52.052;8.354;2023-12-04T07:14:59;100169.00;;;3.30
16956;BMP180;8594;52.052;8.354;2023-12-04T07:17:26;100166.00;;;3.30
16956;BMP180;8594;52.052;8.354;2023-12-04T07:19:53;100172.00;;;2.80
16956;BMP180;8594;52.052;8.354;2023-12-04T07:22:19;100177.00;;;3.10
16956;BMP180;8594;52.052;8.354;2023-12-04T07:24:46;100172.00;;;2.90
16956;BMP180;8594;52.052;8.354;2023-12-04T07:27:13;100167.00;;;3.10
16956;BMP180;8594;52.052;8.354;2023-12-04T07:29:39;100161.00;;;3.10
16956;BMP180;8594;52.052;8.354;2023-12-04T07:32:08;100164.00;;;3.00
16956;BMP180;8594;52.052;8.354;2023-12-04T07:34:34;100165.00;;;3.20
16956;BMP180;8594;52.052;8.354;2023-12-04T07:37:02;100163.00;;;3.00
16956;BMP180;8594;52.052;8.354;2023-12-04T07:39:29;100161.00;;;3.10
16956;BMP180;8594;52.052;8.354;2023-12-04T07:41:56;100161.00;;;2.90
16956;BMP180;8594;52.052;8.354;2023-12-04T07:44:22;100156.00;;;3.10
16956;BMP180;8594;52.052;8.354;2023-12-04T07:46:49;100152.00;;;3.10
16956;BMP180;8594;52.052;8.354;2023-12-04T07:49:17;100154.00;;;2.90
16956;BMP180;8594;52.052;8.354;2023-12-04T07:51:44;100150.00;;;3.20
16956;BMP180;8594;52.052;8.354;2023-12-04T07:54:10;100138.00;;;3.10
16956;BMP180;8594;52.052;8.354;2023-12-04T07:56:37;100145.00;;;3.30
16956;BMP180;8594;52.052;8.354;2023-12-04T07:59:04;100159.00;;;3.30
16956;BMP180;8594;52.052;8.354;2023-12-04T08:01:31;100148.00;;;3.10
16956;BMP180;8594;52.052;8.354;2023-12-04T08:03:58;100154.00;;;2.80
16956;BMP180;8594;52.052;8.354;2023-12-04T08:06:26;100146.00;;;3.10
16956;BMP180;8594;52.052;8.354;2023-12-04T08:08:52;100147.00;;;3.20
16956;BMP180;8594;52.052;8.354;2023-12-04T08:11:20;100143.00;;;2.90
16956;BMP180;8594;52.052;8.354;2023-12-04T08:13:46;100144.00;;;2.90
16956;BMP180;8594;52.052;8.354;2023-12-04T08:16:14;100144.00;;;3.00
16956;BMP180;8594;52.052;8.354;2023-12-04T08:18:41;100140.00;;;3.00
16956;BMP180;8594;52.052;8.354;2023-12-04T08:21:09;100137.00;;;3.10
16956;BMP180;8594;52.052;8.354;2023-12-04T08:23:37;100138.00;;;3.30
16956;BMP180;8594;52.052;8.354;2023-12-04T08:26:04;100134.00;;;3.40
16956;BMP180;8594;52.052;8.354;2023-12-04T08:28:32;100128.00;;;3.40
16956;BMP180;8594;52.052;8.354;2023-12-04T08:30:59;100130.00;;;3.40
16956;BMP180;8594;52.052;8.354;2023-12-04T08:33:26;100128.00;;;3.10
16956;BMP180;8594;52.052;8.354;2023-12-04T08:35:53;100124.00;;;3.20
16956;BMP180;8594;52.052;8.354;2023-12-04T08:38:20;100107.00;;;3.10
16956;BMP180;8594;52.052;8.354;2023-12-04T08:40:48;100113.00;;;3.10
16956;BMP180;8594;52.052;8.354;2023-12-04T08:43:14;100109.00;;;3.10
16956;BMP180;8594;52.052;8.354;2023-12-04T08:45:41;100116.00;;;3.40
16956;BMP180;8594;52.052;8.354;2023-12-04T08:48:08;100110.00;;;3.20
16956;BMP180;8594;52.052;8.354;2023-12-04T08:50:35;100114.00;;;3.10
16956;BMP180;8594;52.052;8.354;2023-12-04T08:53:03;100106.00;;;3.10
16956;BMP180;8594;52.052;8.354;2023-12-04T08:55:30;100104.00;;;3.30
16956;BMP180;8594;52.052;8.354;2023-12-04T08:57:58;100099.00;;;3.20
16956;BMP180;8594;52.052;8.354;2023-12-04T09:00:25;100096.00;;;3.30
16956;BMP180;8594;52.052;8.354;2023-12-04T09:02:52;100099.00;;;3.80
16956;BMP180;8594;52.052;8.354;2023-12-04T09:05:19;100083.00;;;3.10
16956;BMP180;8594;52.052;8.354;2023-12-04T09:07:45;100081.00;;;3.30
16956;BMP180;8594;52.052;8.354;2023-12-04T09:10:12;100087.00;;;3.20
16956;BMP180;8594;52.052;8.354;2023-12-04T09:12:40;100083.00;;;3.40
16956;BMP180;8594;52.052;8.354;2023-12-04T09:15:08;100077.00;;;3.30
16956;BMP180;8594;52.052;8.354;2023-12-04T09:17:35;100081.00;;;3.70
16956;BMP180;8594;52.052;8.354;2023-12-04T09:20:02;100070.00;;;3.50
16956;BMP180;8594;52.052;8.354;2023-12-04T09:22:31;100063.00;;;3.50
16956;BMP180;8594;52.052;8.354;2023-12-04T09:24:58;100067.00;;;3.50
16956;BMP180;8594;52.052;8.354;2023-12-04T09:27:24;100059.00;;;3.50
16956;BMP180;8594;52.052;8.354;2023-12-04T09:29:51;100064.00;;;3.50
16956;BMP180;8594;52.052;8.354;2023-12-04T09:32:19;100060.00;;;3.50
16956;BMP180;8594;52.052;8.354;2023-12-04T09:34:46;100058.00;;;3.50
16956;BMP180;8594;52.052;8.354;2023-12-04T09:37:13;100066.00;;;3.50
16956;BMP180;8594;52.052;8.354;2023-12-04T09:39:40;100063.00;;;3.50
16956;BMP180;8594;52.052;8.354;2023-12-04T09:42:07;100057.00;;;3.70
16956;BMP180;8594;52.052;8.354;2023-12-04T09:44:36;100057.00;;;3.70
16956;BMP180;8594;52.052;8.354;2023-12-04T09:47:04;100053.00;;;3.70
16956;BMP180;8594;52.052;8.354;2023-12-04T09:49:33;100055.00;;;4.10
16956;BMP180;8594;52.052;8.354;2023-12-04T09:52:01;100069.00;;;4.30
16956;BMP180;8594;52.052;8.354;2023-12-04T09:54:29;100059.00;;;4.10
16956;BMP180;8594;52.052;8.354;2023-12-04T09:56:56;100059.00;;;4.40
16956;BMP180;8594;52.052;8.354;2023-12-04T09:59:24;100047.00;;;4.20
16956;BMP180;8594;52.052;8.354;2023-12-04T10:01:52;100038.00;;;4.20
16956;BMP180;8594;52.052;8.354;2023-12-04T10:04:19;100039.00;;;4.20
16956;BMP180;8594;52.052;8.354;2023-12-04T10:06:51;100036.00;;;3.80
16956;BMP180;8594;52.052;8.354;2023-12-04T10:09:18;100025.00;;;4.20
16956;BMP180;8594;52.052;8.354;2023-12-04T10:11:50;100010.00;;;4.00
16956;BMP180;8594;52.052;8.354;2023-12-04T10:14:19;100019.00;;;4.10
16956;BMP180;8594;52.052;8.354;2023-12-04T10:16:47;100015.00;;;4.30
16956;BMP180;8594;52.052;8.354;2023-12-04T10:19:20;100018.00;;;4.10
16956;BMP180;8594;52.052;8.354;2023-12-04T10:21:50;100015.00;;;4.20
16956;BMP180;8594;52.052;8.354;2023-12-04T10:24:33;100013.00;;;4.00
16956;BMP180;8594;52.052;8.354;2023-12-04T10:27:01;100010.00;;;4.20
16956;BMP180;8594;52.052;8.354;2023-12-04T10:29:42;99998.00;;;4.10
16956;BMP180;8594;52.052;8.354;2023-12-04T10:32:09;99997.00;;;4.30
16956;BMP180;8594;52.052;8.354;2023-12-04T10:34:36;99989.00;;;4.00
16956;BMP180;8594;52.052;8.354;2023-12-04T10:37:05;99979.00;;;3.90
16956;BMP180;8594;52.052;8.354;2023-12-04T10:39:45;99983.00;;;4.10
16956;BMP180;8594;52.052;8.354;2023-12-04T10:42:23;99975.00;;;4.40
16956;BMP180;8594;52.052;8.354;2023-12-04T10:44:52;99978.00;;;4.50
16956;BMP180;8594;52.052;8.354;2023-12-04T10:47:23;99980.00;;;3.90
16956;BMP180;8594;52.052;8.354;2023-12-04T10:49:52;99972.00;;;4.30
16956;BMP180;8594;52.052;8.354;2023-12-04T10:52:20;99978.00;;;4.20
16956;BMP180;8594;52.052;8.354;2023-12-04T10:54:48;99960.00;;;3.90
16956;BMP180;8594;52.052;8.354;2023-12-04T10:57:24;99950.00;;;4.20
16956;BMP180;8594;52.052;8.354;2023-12-04T10:59:57;99957.00;;;4.10
16956;BMP180;8594;52.052;8.354;2023-12-04T11:02:26;99957.00;;;4.30
16956;BMP180;8594;52.052;8.354;2023-12-04T11:05:03;99941.00;;;4.50
16956;BMP180;8594;52.052;8.354;2023-12-04T11:07:36;99950.00;;;4.10
16956;BMP180;8594;52.052;8.354;2023-12-04T11:10:07;99939.00;;;4.20
16956;BMP180;8594;52.052;8.354;2023-12-04T11:12:40;99926.00;;;4.20
16956;BMP180;8594;52.052;8.354;2023-12-04T11:15:16;99918.00;;;4.10
16956;BMP180;8594;52.052;8.354;2023-12-04T11:17:49;99923.00;;;3.80
16956;BMP180;8594;52.052;8.354;2023-12-04T11:20:20;99923.00;;;3.90
16956;BMP180;8594;52.052;8.354;2023-12-04T11:22:52;99915.00;;;3.90
16956;BMP180;8594;52.052;8.354;2023-12-04T11:25:21;99913.00;;;3.90
16956;BMP180;8594;52.052;8.354;2023-12-04T11:27:50;99915.00;;;3.90
16956;BMP180;8594;52.052;8.354;2023-12-04T11:30:18;99907.00;;;3.80
16956;BMP180;8594;52.052;8.354;2023-12-04T11:32:48;99909.00;;;4.00
16956;BMP180;8594;52.052;8.354;2023-12-04T11:35:17;99899.00;;;3.80
16956;BMP180;8594;52.052;8.354;2023-12-04T11:37:46;99895.00;;;3.90
16956;BMP180;8594;52.052;8.354;2023-12-04T11:40:16;99901.00;;;4.40
16956;BMP180;8594;52.052;8.354;2023-12-04T11:42:43;99909.00;;;4.20
16956;BMP180;8594;52.052;8.354;2023-12-04T11:45:10;99904.00;;;4.10
16956;BMP180;8594;52.052;8.354;2023-12-04T11:47:50;99898.00;;;4.30
16956;BMP180;8594;52.052;8.354;2023-12-04T11:50:19;99893.00;;;4.10
16956;BMP180;8594;52.052;8.354;2023-12-04T11:52:46;99902.00;;;4.30
16956;BMP180;8594;52.052;8.354;2023-12-04T11:55:16;99915.00;;;4.10
16956;BMP180;8594;52.052;8.354;2023-12-04T11:57:44;99908.00;;;4.20
16956;BMP180;8594;52.052;8.354;2023-12-04T12:00:20;99899.00;;;4.20
16956;BMP180;8594;52.052;8.354;2023-12-04T12:03:00;99896.00;;;4.00
16956;BMP180;8594;52.052;8.354;2023-12-04T12:05:30;99892.00;;;4.20
16956;BMP180;8594;52.052;8.354;2023-12-04T12:08:01;99886.00;;;4.10
16956;BMP180;8594;52.052;8.354;2023-12-04T12:10:30;99879.00;;;4.10
16956;BMP180;8594;52.052;8.354;2023-12-04T12:12:57;99879.00;;;4.50
16956;BMP180;8594;52.052;8.354;2023-12-04T12:15:24;99872.00;;;4.70
16956;BMP180;8594;52.052;8.354;2023-12-04T12:17:51;99869.00;;;4.40
16956;BMP180;8594;52.052;8.354;2023-12-04T12:20:19;99857.00;;;4.50
16956;BMP180;8594;52.052;8.354;2023-12-04T12:22:48;99844.00;;;4.10
16956;BMP180;8594;52.052;8.354;2023-12-04T12:25:17;99852.00;;;4.30
16956;BMP180;8594;52.052;8.354;2023-12-04T12:27:45;99846.00;;;4.50
16956;BMP180;8594;52.052;8.354;2023-12-04T12:30:12;99842.00;;;4.10
16956;BMP180;8594;52.052;8.354;2023-12-04T12:32:40;99839.00;;;4.10
16956;BMP180;8594;52.052;8.354;2023-12-04T12:35:07;99842.00;;;4.10
16956;BMP180;8594;52.052;8.354;2023-12-04T12:37:34;99838.00;;;4.20
16956;BMP180;8594;52.052;8.354;2023-12-04T12:40:04;99840.00;;;4.50
16956;BMP180;8594;52.052;8.354;2023-12-04T12:42:30;99832.00;;;4.40
16956;BMP180;8594;52.052;8.354;2023-12-04T12:45:01;99842.00;;;4.30
16956;BMP180;8594;52.052;8.354;2023-12-04T12:47:29;99829.00;;;4.70
16956;BMP180;8594;52.052;8.354;2023-12-04T12:49:56;99835.00;;;4.70
16956;BMP180;8594;52.052;8.354;2023-12-04T12:52:23;99834.00;;;4.30
16956;BMP180;8594;52.052;8.354;2023-12-04T12:54:51;99821.00;;;4.20
16956;BMP180;8594;52.052;8.354;2023-12-04T12:57:18;99831.00;;;4.50
16956;BMP180;8594;52.052;8.354;2023-12-04T12:59:45;99831.00;;;4.70
16956;BMP180;8594;52.052;8.354;2023-12-04T13:02:14;99823.00;;;4.20
16956;BMP180;8594;52.052;8.354;2023-12-04T13:04:43;99819.00;;;4.30
16956;BMP180;8594;52.052;8.354;2023-12-04T13:07:10;99795.00;;;3.90
16956;BMP180;8594;52.052;8.354;2023-12-04T13:09:37;99800.00;;;4.20
16956;BMP180;8594;52.052;8.354;2023-12-04T13:12:06;99799.00;;;4.40
16956;BMP180;8594;52.052;8.354;2023-12-04T13:14:34;99790.00;;;4.20
16956;BMP180;8594;52.052;8.354;2023-12-04T13:17:02;99790.00;;;4.20
16956;BMP180;8594;52.052;8.354;2023-12-04T13:19:30;99794.00;;;4.40
16956;BMP180;8594;52.052;8.354;2023-12-04T13:22:00;99783.00;;;4.30
16956;BMP180;8594;52.052;8.354;2023-12-04T13:24:27;99788.00;;;4.30
16956;BMP180;8594;52.052;8.354;2023-12-04T13:26:54;99793.00;;;4.70
16956;BMP180;8594;52.052;8.354;2023-12-04T13:29:21;99796.00;;;4.80
16956;BMP180;8594;52.052;8.354;2023-12-04T13:31:48;99778.00;;;4.70
16956;BMP180;8594;52.052;8.354;2023-12-04T13:34:16;99776.00;;;4.70
16956;BMP180;8594;52.052;8.354;2023-12-04T13:36:44;99784.00;;;4.40
16956;BMP180;8594;52.052;8.354;2023-12-04T13:39:11;99771.00;;;4.60
16956;BMP180;8594;52.052;8.354;2023-12-04T13:41:44;99762.00;;;4.30
16956;BMP180;8594;52.052;8.354;2023-12-04T13:44:29;99774.00;;;4.70
16956;BMP180;8594;52.052;8.354;2023-12-04T13:46:56;99764.00;;;4.50
16956;BMP180;8594;52.052;8.354;2023-12-04T13:49:23;99760.00;;;4.60
16956;BMP180;8594;52.052;8.354;2023-12-04T13:51:51;99762.00;;;4.50
16956;BMP180;8594;52.052;8.354;2023-12-04T13:54:19;99756.00;;;4.40
16956;BMP180;8594;52.052;8.354;2023-12-04T13:56:48;99754.00;;;4.20
16956;BMP180;8594;52.052;8.354;2023-12-04T13:59:23;99750.00;;;4.40
16956;BMP180;8594;52.052;8.354;2023-12-04T14:01:50;99737.00;;;3.90
16956;BMP180;8594;52.052;8.354;2023-12-04T14:04:17;99728.00;;;4.00
16956;BMP180;8594;52.052;8.354;2023-12-04T14:06:44;99730.00;;;3.90
16956;BMP180;8594;52.052;8.354;2023-12-04T14:09:13;99733.00;;;4.00
16956;BMP180;8594;52.052;8.354;2023-12-04T14:11:43;99725.00;;;3.90
16956;BMP180;8594;52.052;8.354;2023-12-04T14:14:10;99721.00;;;3.80
16956;BMP180;8594;52.052;8.354;2023-12-04T14:16:38;99724.00;;;4.10
16956;BMP180;8594;52.052;8.354;2023-12-04T14:19:05;99719.00;;;4.00
16956;BMP180;8594;52.052;8.354;2023-12-04T14:21:32;99718.00;;;4.10
16956;BMP180;8594;52.052;8.354;2023-12-04T14:23:59;99707.00;;;4.00
16956;BMP180;8594;52.052;8.354;2023-12-04T14:26:27;99716.00;;;4.00